Flight Track Log - Related Links

Times and Time Zones

All times are in EDT time to prevent confusion due to time zone crossing. See the ASQ4537 flight status page for this flight to view local times or setup timezone preferences in your user account.


Time Position Orientation Groundspeed Altitude Reporting Facility
EDT Latitude Longitude Course Direction KTS MPH feet Rate Location/Type
Fri 08:54:19 AM 40.7333 -74.1167 258° West 188 216 2,600  Level New York TRACON
Fri 08:55:19 AM 40.7833 -74.1000 14° North 211 243 3,600 1,400 Climbing New York TRACON
Fri 08:56:19 AM 40.7833 -74.1833 270° West 247 284 5,400 2,100 Climbing New York TRACON
Fri 08:57:19 AM 40.7667 -74.2833 258° West 260 299 7,800 2,190 Climbing New York TRACON
Fri 08:58:25 AM 40.7583 -74.3872 264° West 262 302 10,000 1,286 Climbing New York Center
Fri 08:59:00 AM 40.6803 -74.9849 258° West  Level FlightAware Approximate
Fri 08:59:25 AM 40.7494 -74.4717 262° West 304 350 10,500  Level New York Center
Fri 09:00:25 AM 40.7372 -74.5917 262° West 333 383 11,600 1,350 Climbing New York Center
Fri 09:01:25 AM 40.7225 -74.7222 262° West 333 383 13,200 1,450 Climbing New York Center
Fri 09:02:25 AM 40.7125 -74.8311 263° West 333 383 14,500 1,450 Climbing New York Center
Fri 09:03:25 AM 40.6975 -74.9672 262° West 333 383 16,100 1,500 Climbing New York Center
Fri 09:04:25 AM 40.6808 -75.0836 259° West 333 383 17,500 1,300 Climbing New York Center
Fri 09:05:25 AM 40.6356 -75.1794 238° Southwest 333 383 18,700 1,050 Climbing New York Center
Fri 09:06:25 AM 40.5897 -75.2858 240° Southwest 339 390 19,600 950 Climbing New York Center
Fri 09:07:25 AM 40.5375 -75.3997 239° Southwest 353 406 20,600 950 Climbing New York Center
Fri 09:08:25 AM 40.4853 -75.5108 238° Southwest 363 418 21,500 950 Climbing New York Center
Fri 09:09:25 AM 40.4325 -75.6272 239° Southwest 363 418 22,500 950 Climbing New York Center
Fri 09:10:25 AM 40.3797 -75.7406 239° Southwest 368 423 23,400 950 Climbing New York Center
Fri 09:11:25 AM 40.3292 -75.8567 240° Southwest 373 429 24,400 1,000 Climbing New York Center
Fri 09:12:25 AM 40.2719 -75.9697 236° Southwest 373 429 25,400 950 Climbing New York Center
Fri 09:13:25 AM 40.2169 -76.0850 238° Southwest 373 429 26,300 900 Climbing New York Center
Fri 09:14:25 AM 40.1658 -76.1981 239° Southwest 373 429 27,200 1,000 Climbing New York Center
Fri 09:15:25 AM 40.1036 -76.3261 238° Southwest 373 429 28,300 1,000 Climbing New York Center
Fri 09:16:25 AM 40.0550 -76.4281 238° Southwest 373 429 29,200 900 Climbing New York Center
Fri 09:17:25 AM 40.0036 -76.5406 239° Southwest 373 429 30,100 950 Climbing New York Center
Fri 09:18:25 AM 39.9500 -76.6553 239° Southwest 373 429 31,100 950 Climbing New York Center
Fri 09:19:25 AM 39.8917 -76.7803 239° Southwest 373 429 32,000 346 Climbing New York Center
Fri 09:21:01 AM 39.8078 -76.9689 240° Southwest 404 465 32,000  Level Washington Center
Fri 09:22:00 AM 39.7544 -77.0842 239° Southwest 410 472 32,000  Level Washington Center
Fri 09:23:01 AM 39.6839 -77.2308 238° Southwest 429 494 32,000  Level Washington Center
Fri 09:24:01 AM 39.6258 -77.3508 238° Southwest 444 511 32,000  Level Washington Center
Fri 09:25:00 AM 39.5569 -77.4944 238° Southwest 439 505 32,000  Level Washington Center
Fri 09:26:00 AM 39.4989 -77.6139 238° Southwest 420 483 32,000  Level Washington Center
Fri 09:27:01 AM 39.4317 -77.7572 239° Southwest 420 483 32,000  Level Washington Center
Fri 09:27:59 AM 39.3689 -77.8842 237° Southwest 428 493 32,000  Level Washington Center
Fri 09:29:00 AM 39.3247 -78.0142 246° West 428 493 32,000  Level Washington Center
Fri 09:30:01 AM 39.2569 -78.1703 241° Southwest 457 526 32,000  Level Washington Center
Fri 09:31:01 AM 39.2083 -78.2944 243° Southwest 445 512 32,000  Level Washington Center
Fri 09:31:59 AM 39.1486 -78.4447 243° Southwest 440 506 32,000  Level Washington Center
Fri 09:32:59 AM 39.0956 -78.5683 241° Southwest 446 513 32,000  Level Washington Center
Fri 09:34:00 AM 39.0461 -78.7106 246° West 441 507 32,000  Level Washington Center
Fri 09:35:01 AM 38.9903 -78.8497 243° Southwest 441 507 32,000  Level Washington Center
Fri 09:35:59 AM 38.9214 -78.9961 239° Southwest 441 507 32,000  Level Washington Center
Fri 09:37:00 AM 38.8883 -79.1361 253° West 441 507 32,000  Level Washington Center
Fri 09:38:00 AM 38.8525 -79.2864 253° West 446 513 32,000  Level Washington Center
Fri 09:38:59 AM 38.8186 -79.4364 254° West 446 513 32,000  Level Washington Center
Fri 09:40:00 AM 38.7844 -79.5864 254° West 441 507 32,000  Level Washington Center
Fri 09:41:00 AM 38.7481 -79.7389 253° West 441 507 32,000  Level Washington Center
Fri 09:41:58 AM 38.7117 -79.8858 252° West 441 507 32,000  Level Washington Center
Fri 09:42:30 AM 38.6933 -79.9511 250° West 441 507 32,000  Level Indianapolis Center
Fri 09:43:32 AM 38.6481 -80.1333 252° West 443 510 32,000  Level Indianapolis Center
Fri 09:44:34 AM 38.6128 -80.2842 253° West 443 510 32,000  Level Indianapolis Center
Fri 09:45:36 AM 38.5739 -80.4447 253° West 445 512 32,000  Level Indianapolis Center
Fri 09:46:38 AM 38.5386 -80.5894 253° West 447 514 32,000  Level Indianapolis Center
Fri 09:47:40 AM 38.5011 -80.7411 253° West 447 514 32,000  Level Indianapolis Center
Fri 09:48:42 AM 38.4639 -80.8944 253° West 448 516 32,000  Level Indianapolis Center
Fri 09:49:45 AM 38.4253 -81.0464 252° West 448 516 32,000  Level Indianapolis Center
Fri 09:50:47 AM 38.3792 -81.2319 252° West 451 519 32,000  Level Indianapolis Center
Fri 09:51:49 AM 38.3400 -81.3864 252° West 451 519 32,000  Level Indianapolis Center
Fri 09:52:51 AM 38.3011 -81.5403 252° West 451 519 32,000  Level Indianapolis Center
Fri 09:53:53 AM 38.2636 -81.6925 253° West 451 519 32,000  Level Indianapolis Center
Fri 09:54:55 AM 38.2242 -81.8433 252° West 451 519 32,000  Level Indianapolis Center
Fri 09:55:57 AM 38.1856 -81.9933 252° West 449 517 32,000  Level Indianapolis Center
Fri 09:56:59 AM 38.1467 -82.1419 252° West 447 514 32,000  Level Indianapolis Center
Fri 09:58:01 AM 38.1053 -82.3014 252° West 446 513 32,000  Level Indianapolis Center
Fri 09:59:03 AM 38.0656 -82.4514 251° West 446 513 32,000  Level Indianapolis Center
Fri 10:00:05 AM 38.0186 -82.6275 251° West 449 517 32,000  Level Indianapolis Center
Fri 10:01:07 AM 37.9781 -82.7789 251° West 450 518 32,000  Level Indianapolis Center
Fri 10:02:10 AM 37.9375 -82.9308 251° West 452 520 32,000  Level Indianapolis Center
Fri 10:03:12 AM 37.8969 -83.0817 251° West 453 521 32,000  Level Indianapolis Center
Fri 10:04:14 AM 37.8567 -83.2322 251° West 453 521 32,000  Level Indianapolis Center
Fri 10:05:16 AM 37.8097 -83.4064 251° West 452 520 32,000  Level Indianapolis Center
Fri 10:06:18 AM 37.7681 -83.5531 250° West 451 519 32,000  Level Indianapolis Center
Fri 10:07:20 AM 37.7281 -83.7003 251° West 447 514 32,000  Level Indianapolis Center
Fri 10:08:22 AM 37.6861 -83.8472 250° West 446 513 32,000  Level Indianapolis Center
Fri 10:09:24 AM 37.6461 -83.9947 251° West 446 513 32,000  Level Indianapolis Center
Fri 10:10:26 AM 37.5972 -84.1661 250° West 446 513 32,000  Level Indianapolis Center
Fri 10:11:28 AM 37.5553 -84.3153 251° West 447 514 32,000  Level Indianapolis Center
Fri 10:12:30 AM 37.5131 -84.4678 251° West 455 524 32,000  Level Indianapolis Center
Fri 10:13:32 AM 37.4686 -84.6194 250° West 459 528 32,000  Level Indianapolis Center
Fri 10:14:34 AM 37.4247 -84.7731 250° West 461 531 32,000  Level Indianapolis Center
Fri 10:15:37 AM 37.3742 -84.9492 250° West 461 531 32,000  Level Indianapolis Center
Fri 10:16:39 AM 37.3292 -85.0983 249° West 461 531 32,000  Level Indianapolis Center
Fri 10:17:41 AM 37.2867 -85.2456 250° West 456 525 32,000  Level Indianapolis Center
Fri 10:18:43 AM 37.2450 -85.3919 250° West 450 518 32,000  Level Indianapolis Center
Fri 10:19:45 AM 37.2019 -85.5383 250° West 449 517 32,000  Level Indianapolis Center
Fri 10:20:47 AM 37.1511 -85.7094 250° West 449 517 32,000  Level Indianapolis Center
Fri 10:21:49 AM 37.1061 -85.8592 249° West 450 518 32,000  Level Indianapolis Center
Fri 10:22:51 AM 37.0608 -86.0094 249° West 453 521 32,000  Level Indianapolis Center
Fri 10:23:53 AM 37.0150 -86.1606 249° West 457 526 32,000  Level Indianapolis Center
Fri 10:24:55 AM 36.9683 -86.3111 249° West 458 527 32,000  Level Indianapolis Center
Fri 10:25:57 AM 36.9214 -86.4631 249° West 462 532 32,000  Level Indianapolis Center
Fri 10:27:00 AM 36.8483 -86.6267 241° Southwest 462 532 32,000  Level Indianapolis Center
Fri 10:28:02 AM 36.7872 -86.7639 241° Southwest 457 526 32,000  Level Indianapolis Center
Fri 10:29:04 AM 36.7272 -86.8997 241° Southwest 451 519 32,000  Level Indianapolis Center
Fri 10:30:06 AM 36.6669 -87.0367 241° Southwest 451 519 32,000  Level Indianapolis Center
Fri 10:31:08 AM 36.6047 -87.1769 241° Southwest 456 525 32,000  Level Indianapolis Center
Fri 10:32:10 AM 36.5414 -87.3150 240° Southwest 458 527 32,000  Level Indianapolis Center
Fri 10:33:12 AM 36.4675 -87.4797 241° Southwest 461 531 32,000  Level Indianapolis Center
Fri 10:34:14 AM 36.4042 -87.6208 241° Southwest 462 532 32,000  Level Indianapolis Center
Fri 10:35:16 AM 36.3400 -87.7611 240° Southwest 463 533 32,000  Level Indianapolis Center
Fri 10:36:18 AM 36.2756 -87.9039 241° Southwest 465 535 32,000 -415 Level Indianapolis Center
Fri 10:37:26 AM 36.2006 -88.0647 240° Southwest 463 533 31,100 -923 Descending Memphis Center
Fri 10:38:28 AM 36.1414 -88.1936 240° Southwest 454 522 30,000 -1,065 Descending Memphis Center
Fri 10:39:30 AM 36.0781 -88.3294 240° Southwest 454 522 28,900 -1,065 Descending Memphis Center
Fri 10:40:32 AM 36.0161 -88.4633 240° Southwest 452 520 27,800 -1,210 Descending Memphis Center
Fri 10:41:34 AM 35.9417 -88.6231 240° Southwest 449 517 26,400 -1,258 Descending Memphis Center
Fri 10:42:36 AM 35.8806 -88.7531 240° Southwest 441 507 25,200 -1,113 Descending Memphis Center
Fri 10:43:38 AM 35.8219 -88.8764 240° Southwest 423 487 24,100 -1,065 Descending Memphis Center
Fri 10:44:40 AM 35.7633 -88.9997 240° Southwest 418 481 23,000 -1,403 Descending Memphis Center
Fri 10:45:42 AM 35.6958 -89.1144 234° Southwest 422 486 21,200 -1,968 Descending Memphis Center
Fri 10:46:45 AM 35.6197 -89.2133 227° Southwest 399 459 18,900 -1,776 Descending Memphis Center
Fri 10:47:47 AM 35.5522 -89.3006 226° Southwest 366 421 17,500 -1,790 Descending Memphis Center
Fri 10:48:49 AM 35.4856 -89.3856 226° Southwest 355 409 15,200 -1,984 Descending Memphis Center
Fri 10:49:51 AM 35.4083 -89.4847 226° Southwest 344 396 13,400 -1,355 Descending Memphis Center
Fri 10:50:53 AM 35.3444 -89.5656 226° Southwest 337 388 12,400 -1,016 Descending Memphis Center
Fri 10:51:55 AM 35.2836 -89.6428 226° Southwest 324 373 11,300 -1,016 Descending Memphis Center
Fri 10:52:57 AM 35.2297 -89.7128 227° Southwest 296 341 10,300 -919 Descending Memphis Center
Fri 10:53:59 AM 35.1767 -89.7789 226° Southwest 280 322 9,400 -823 Descending Memphis Center
Fri 10:55:01 AM 35.1153 -89.8544 225° Southwest 267 307 8,600 -823 Descending Memphis Center
Fri 10:56:03 AM 35.0506 -89.8653 188° South 246 283 7,700 -968 Descending Memphis Center
Fri 10:57:05 AM 34.9842 -89.8642 179° South 245 282 6,600 -1,210 Descending Memphis Center
Fri 10:58:07 AM 34.9178 -89.8633 179° South 243 280 5,200 -1,500 Descending Memphis Center
Fri 10:59:09 AM 34.8417 -89.8633 180° South 237 273 3,500 -1,248 Descending Memphis Center
Fri 11:00:12 AM 34.8167 -89.9111 237° Southwest 214 246 2,600 -720 Descending Memphis Center
Fri 11:01:14 AM 34.8367 -89.9572 298° West 190 219 2,000 -288 Descending Memphis Center
Fri 11:02:17 AM 34.8825 -89.9742 343° North 180 207 2,000 62 Level Memphis Center
Fri 11:02:51 AM 34.9167 -89.9667 10° North 145 167 2,100 -128 Climbing Memphis TRACON
Fri 11:03:51 AM 34.9500 -89.9667 360° North 137 158 1,800 -500 Descending Memphis TRACON
Fri 11:04:51 AM 34.9833 -89.9667 360° North 139 160 1,100 -468 Descending Memphis TRACON
Fri 11:06:25 AM 35.0469 -89.9758 353° North 141 162 600 -319 Descending Memphis Center

Login

Don't have an account? Register now (free) for customized features, flight alerts, and more!